Time;durP1;ratioP1;P1;durP2;ratioP2;P2;SDS_P1;SDS_P2;PMS_P1;PMS_P2;Temp;Humidity;BMP_temperature;BMP_pressure;BME280_temperature;BME280_humidity;BME280_pressure;Samples;Min_cycle;Max_cycle;Signal;HPM_P1;HPM_P2
2022/12/05 00:02:06;;;;;;;19.77;12.13;;;;;;;;;;5013339;28;20567;-68
2022/12/05 00:04:35;;;;;;;19.42;12.43;;;;;;;;;;5015623;28;20252;-67
2022/12/05 00:07:04;;;;;;;21.50;13.27;;;;;;;;;;5015013;28;20211;-67
2022/12/05 00:09:31;;;;;;;20.27;12.73;;;;;;;;;;5015290;28;20573;-67
2022/12/05 00:11:57;;;;;;;20.13;12.68;;;;;;;;;;5026480;28;20421;-68
2022/12/05 00:14:25;;;;;;;19.67;12.63;;;;;;;;;;5035140;28;20247;-67
2022/12/05 00:16:52;;;;;;;21.58;13.05;;;;;;;;;;5035301;28;20284;-68
2022/12/05 00:19:19;;;;;;;15.93;12.10;;;;;;;;;;5034950;28;20206;-68
2022/12/05 00:21:46;;;;;;;17.08;11.98;;;;;;;;;;5035284;28;20581;-68
2022/12/05 00:24:16;;;;;;;22.55;12.57;;;;;;;;;;5035069;28;20205;-68
2022/12/05 00:26:43;;;;;;;19.67;13.32;;;;;;;;;;5035133;28;20264;-68
2022/12/05 00:29:11;;;;;;;20.27;13.25;;;;;;;;;;5035134;28;20564;-68
2022/12/05 00:31:38;;;;;;;18.40;12.38;;;;;;;;;;5034803;28;20281;-67
2022/12/05 00:34:05;;;;;;;20.42;12.80;;;;;;;;;;5034330;28;20217;-67
2022/12/05 00:36:33;;;;;;;20.17;12.25;;;;;;;;;;5034725;28;20241;-67
2022/12/05 00:39:02;;;;;;;19.48;11.90;;;;;;;;;;5034675;28;20248;-67
2022/12/05 00:41:30;;;;;;;16.00;11.82;;;;;;;;;;5034421;28;20300;-68
2022/12/05 00:43:59;;;;;;;18.30;12.00;;;;;;;;;;5034477;28;20243;-68
2022/12/05 00:46:26;;;;;;;18.35;12.40;;;;;;;;;;5034664;28;20273;-68
2022/12/05 00:48:53;;;;;;;18.90;12.73;;;;;;;;;;5034239;28;20480;-69
2022/12/05 00:51:21;;;;;;;19.38;11.63;;;;;;;;;;5037282;28;20201;-68
2022/12/05 00:53:48;;;;;;;18.00;12.05;;;;;;;;;;5039383;28;20190;-68
2022/12/05 00:56:16;;;;;;;18.30;11.63;;;;;;;;;;5039672;28;20265;-68
2022/12/05 00:58:44;;;;;;;14.82;10.98;;;;;;;;;;5039489;28;20380;-68
2022/12/05 01:01:11;;;;;;;13.75;10.82;;;;;;;;;;5039762;28;20202;-68
2022/12/05 01:03:37;;;;;;;19.63;11.32;;;;;;;;;;5039222;28;20201;-68
2022/12/05 01:06:04;;;;;;;17.77;11.68;;;;;;;;;;5039578;28;20482;-68
2022/12/05 01:08:31;;;;;;;20.42;12.48;;;;;;;;;;5038861;28;20217;-68
2022/12/05 01:10:58;;;;;;;17.48;11.80;;;;;;;;;;5039560;28;20220;-69
2022/12/05 01:13:24;;;;;;;16.85;11.60;;;;;;;;;;5035182;28;20494;-69
2022/12/05 01:15:52;;;;;;;18.38;12.05;;;;;;;;;;5024159;28;20409;-68
2022/12/05 01:18:19;;;;;;;18.10;11.77;;;;;;;;;;5033660;28;20213;-69
2022/12/05 01:20:46;;;;;;;18.38;12.27;;;;;;;;;;5034103;28;20214;-68
2022/12/05 01:23:12;;;;;;;16.48;11.55;;;;;;;;;;5029927;28;20212;-68
2022/12/05 01:25:39;;;;;;;20.10;12.32;;;;;;;;;;5028581;28;20210;-68
2022/12/05 01:28:06;;;;;;;17.55;11.48;;;;;;;;;;5033889;28;20418;-68
2022/12/05 01:30:32;;;;;;;20.63;12.70;;;;;;;;;;5038348;28;20241;-68
2022/12/05 01:33:00;;;;;;;17.70;12.10;;;;;;;;;;5039394;28;20446;-68
2022/12/05 01:35:26;;;;;;;19.30;12.40;;;;;;;;;;5039479;28;20536;-68
2022/12/05 01:37:52;;;;;;;21.02;12.20;;;;;;;;;;5039550;28;20570;-68
2022/12/05 01:40:19;;;;;;;19.35;11.60;;;;;;;;;;5039528;28;20513;-68
2022/12/05 01:42:45;;;;;;;16.35;11.18;;;;;;;;;;5039520;28;20264;-68
2022/12/05 01:45:14;;;;;;;17.65;12.15;;;;;;;;;;5039675;28;20706;-68
2022/12/05 01:47:41;;;;;;;17.17;11.73;;;;;;;;;;5039129;28;20395;-68
2022/12/05 01:50:10;;;;;;;17.83;11.93;;;;;;;;;;5039244;28;20259;-68
2022/12/05 01:52:36;;;;;;;17.80;11.73;;;;;;;;;;5039063;28;20198;-68
2022/12/05 01:55:05;;;;;;;17.67;11.95;;;;;;;;;;5039354;28;20502;-68
2022/12/05 01:57:32;;;;;;;20.08;12.30;;;;;;;;;;5039216;28;20198;-68
2022/12/05 02:00:01;;;;;;;17.10;11.45;;;;;;;;;;5039294;28;20194;-68
2022/12/05 02:02:27;;;;;;;17.20;11.13;;;;;;;;;;5039290;28;20273;-68
2022/12/05 02:04:58;;;;;;;18.70;11.82;;;;;;;;;;5039225;28;20198;-68
2022/12/05 02:07:26;;;;;;;17.00;11.07;;;;;;;;;;5038934;28;20198;-69
2022/12/05 02:09:52;;;;;;;17.45;11.75;;;;;;;;;;5039002;28;20431;-69
2022/12/05 02:12:20;;;;;;;17.27;11.35;;;;;;;;;;5039124;28;20197;-69
2022/12/05 02:14:50;;;;;;;16.88;11.95;;;;;;;;;;5039192;28;20236;-69
2022/12/05 02:17:19;;;;;;;17.95;11.68;;;;;;;;;;5039132;28;20269;-69
2022/12/05 02:20:03;;;;;;;17.13;11.63;;;;;;;;;;5039546;28;20201;-69
2022/12/05 02:22:50;;;;;;;18.85;11.60;;;;;;;;;;5042651;28;20197;-69
2022/12/05 02:25:30;;;;;;;23.00;12.63;;;;;;;;;;5042651;28;20197;-69
2022/12/05 02:28:07;;;;;;;19.63;12.10;;;;;;;;;;5042087;28;20221;-69
2022/12/05 02:30:36;;;;;;;19.92;11.68;;;;;;;;;;5042622;28;20536;-69
2022/12/05 02:33:08;;;;;;;19.45;12.50;;;;;;;;;;5042579;28;20250;-68
2022/12/05 02:35:39;;;;;;;17.60;10.75;;;;;;;;;;5042300;28;20197;-68
2022/12/05 02:38:12;;;;;;;19.90;11.90;;;;;;;;;;5041968;28;20209;-68
2022/12/05 02:40:41;;;;;;;18.65;11.48;;;;;;;;;;5042683;28;20260;-68
2022/12/05 02:43:10;;;;;;;17.90;10.65;;;;;;;;;;5042322;28;20198;-68
2022/12/05 02:45:39;;;;;;;18.58;11.60;;;;;;;;;;5042314;28;20224;-69
2022/12/05 02:48:06;;;;;;;20.38;12.35;;;;;;;;;;5041508;28;20204;-68
2022/12/05 02:50:34;;;;;;;24.52;12.77;;;;;;;;;;5041488;28;20241;-68
2022/12/05 02:53:03;;;;;;;21.65;11.60;;;;;;;;;;5042081;27;20395;-68
2022/12/05 02:55:30;;;;;;;20.52;12.13;;;;;;;;;;5042086;28;20200;-69
2022/12/05 02:58:01;;;;;;;20.75;12.52;;;;;;;;;;5041755;28;20208;-68
2022/12/05 03:00:27;;;;;;;17.67;11.75;;;;;;;;;;5041937;28;20200;-68
2022/12/05 03:02:56;;;;;;;20.75;11.85;;;;;;;;;;5041723;28;20234;-68
2022/12/05 03:05:25;;;;;;;20.45;12.25;;;;;;;;;;5041695;28;20317;-68
2022/12/05 03:07:53;;;;;;;24.58;13.23;;;;;;;;;;5041839;28;20203;-68
2022/12/05 03:10:21;;;;;;;21.90;12.15;;;;;;;;;;5041719;28;20243;-68
2022/12/05 03:12:50;;;;;;;19.23;12.07;;;;;;;;;;5041823;28;20225;-68
2022/12/05 03:15:19;;;;;;;20.88;12.00;;;;;;;;;;5041673;28;20391;-68
2022/12/05 03:17:48;;;;;;;21.20;11.95;;;;;;;;;;5041578;28;20205;-68
2022/12/05 03:20:22;;;;;;;21.35;11.85;;;;;;;;;;5041409;28;20208;-68
2022/12/05 03:22:51;;;;;;;19.63;12.38;;;;;;;;;;5041542;28;20205;-68
2022/12/05 03:25:17;;;;;;;21.00;12.07;;;;;;;;;;5041600;28;20208;-68
2022/12/05 03:27:46;;;;;;;20.85;12.68;;;;;;;;;;5041095;28;20222;-68
2022/12/05 03:30:14;;;;;;;19.08;11.75;;;;;;;;;;5041671;27;20473;-68
2022/12/05 03:32:42;;;;;;;21.73;12.98;;;;;;;;;;5041449;28;20198;-68
2022/12/05 03:35:11;;;;;;;21.73;13.25;;;;;;;;;;5041693;28;20198;-69
2022/12/05 03:37:43;;;;;;;19.17;12.52;;;;;;;;;;5041265;28;20225;-69
2022/12/05 03:40:13;;;;;;;21.63;12.18;;;;;;;;;;5041367;28;20198;-69
2022/12/05 03:42:42;;;;;;;21.63;12.45;;;;;;;;;;5041270;28;20214;-69
2022/12/05 03:45:11;;;;;;;20.02;12.20;;;;;;;;;;5041299;28;20401;-69
2022/12/05 03:47:41;;;;;;;20.42;11.48;;;;;;;;;;5041095;28;20198;-68
2022/12/05 03:50:10;;;;;;;19.65;12.18;;;;;;;;;;5041114;28;20220;-68
2022/12/05 03:52:41;;;;;;;26.00;13.10;;;;;;;;;;5041219;28;20269;-68
2022/12/05 03:55:12;;;;;;;21.55;12.00;;;;;;;;;;5041184;28;20277;-68
2022/12/05 03:57:42;;;;;;;21.30;12.75;;;;;;;;;;5041165;28;20529;-68
2022/12/05 04:00:10;;;;;;;21.17;12.20;;;;;;;;;;5041246;28;20201;-68
2022/12/05 04:02:44;;;;;;;21.23;11.52;;;;;;;;;;5041138;28;20198;-68
2022/12/05 04:05:13;;;;;;;20.30;12.80;;;;;;;;;;5041000;28;20269;-68
2022/12/05 04:07:40;;;;;;;19.73;12.25;;;;;;;;;;5040484;28;20206;-69
2022/12/05 04:10:09;;;;;;;21.33;11.82;;;;;;;;;;5041145;28;20221;-69
2022/12/05 04:12:37;;;;;;;20.38;12.60;;;;;;;;;;5040954;28;20198;-69
2022/12/05 04:15:06;;;;;;;19.17;11.30;;;;;;;;;;5040855;28;20206;-69
2022/12/05 04:17:33;;;;;;;17.33;11.27;;;;;;;;;;5040645;28;20198;-69
2022/12/05 04:22:46;;;;;;;17.45;11.38;;;;;;;;;;5040748;28;20530;-69
2022/12/05 04:28:00;;;;;;;20.33;11.15;;;;;;;;;;5040315;28;20255;-69
2022/12/05 04:30:28;;;;;;;19.25;11.77;;;;;;;;;;5040560;28;20217;-69
2022/12/05 04:32:59;;;;;;;16.00;11.05;;;;;;;;;;5040635;28;20455;-69
2022/12/05 04:35:28;;;;;;;20.45;11.90;;;;;;;;;;5040504;28;20388;-69
2022/12/05 04:37:57;;;;;;;20.90;12.15;;;;;;;;;;5040267;28;20276;-69
2022/12/05 04:40:26;;;;;;;19.90;12.70;;;;;;;;;;5040396;28;20277;-69
2022/12/05 04:42:53;;;;;;;21.58;12.05;;;;;;;;;;5039461;28;20213;-69
2022/12/05 04:45:22;;;;;;;19.63;11.95;;;;;;;;;;5040602;28;20198;-68
2022/12/05 04:47:50;;;;;;;19.52;11.73;;;;;;;;;;5040126;28;20198;-68
2022/12/05 04:50:17;;;;;;;23.63;12.00;;;;;;;;;;5040111;28;20236;-68
2022/12/05 04:52:47;;;;;;;18.80;11.65;;;;;;;;;;5040496;28;20264;-68
2022/12/05 04:55:15;;;;;;;19.63;11.85;;;;;;;;;;5040063;28;20457;-68
2022/12/05 04:57:44;;;;;;;19.88;11.57;;;;;;;;;;5039837;28;20198;-68
2022/12/05 05:00:11;;;;;;;19.08;11.63;;;;;;;;;;5040047;28;20200;-69
2022/12/05 05:02:42;;;;;;;21.83;13.05;;;;;;;;;;5040266;28;20198;-69
2022/12/05 05:05:10;;;;;;;19.58;11.30;;;;;;;;;;5040232;28;20206;-69
2022/12/05 05:07:42;;;;;;;20.75;12.15;;;;;;;;;;5039802;28;20198;-69
2022/12/05 05:10:10;;;;;;;22.90;11.90;;;;;;;;;;5040169;28;20723;-69
2022/12/05 05:12:36;;;;;;;23.85;13.20;;;;;;;;;;5039960;28;20189;-69
2022/12/05 05:15:03;;;;;;;23.60;12.90;;;;;;;;;;5039781;28;20197;-69
2022/12/05 05:17:29;;;;;;;20.13;12.60;;;;;;;;;;5039836;27;20265;-69
2022/12/05 05:20:22;;;;;;;25.88;13.38;;;;;;;;;;5039346;28;20208;-69
2022/12/05 05:22:43;;;;;;;25.95;13.68;;;;;;;;;;5039696;28;20190;-68
2022/12/05 05:25:09;;;;;;;26.02;14.77;;;;;;;;;;5040055;28;20399;-68
2022/12/05 05:27:36;;;;;;;33.45;18.20;;;;;;;;;;5039717;28;20217;-68
2022/12/05 05:30:02;;;;;;;53.60;27.70;;;;;;;;;;5039715;28;20412;-68
2022/12/05 05:32:28;;;;;;;44.28;23.75;;;;;;;;;;5039712;28;20210;-68
2022/12/05 05:34:54;;;;;;;22.02;13.25;;;;;;;;;;5039402;28;20523;-68
2022/12/05 05:37:22;;;;;;;24.83;12.10;;;;;;;;;;5039892;28;20198;-68
2022/12/05 05:39:48;;;;;;;22.23;12.55;;;;;;;;;;5039394;28;20366;-68
2022/12/05 05:42:15;;;;;;;23.58;11.73;;;;;;;;;;5039566;28;20198;-68
2022/12/05 05:44:41;;;;;;;18.70;11.68;;;;;;;;;;5039781;28;20208;-68
2022/12/05 05:47:07;;;;;;;21.80;12.45;;;;;;;;;;5039392;28;20198;-68
2022/12/05 05:49:34;;;;;;;20.38;11.82;;;;;;;;;;5039034;28;20209;-68
2022/12/05 05:52:00;;;;;;;20.17;12.23;;;;;;;;;;5039314;28;20197;-69
2022/12/05 05:54:28;;;;;;;17.63;11.55;;;;;;;;;;5038921;28;20204;-68
2022/12/05 05:56:54;;;;;;;20.95;12.50;;;;;;;;;;5039568;28;20198;-68
2022/12/05 05:59:20;;;;;;;21.17;11.68;;;;;;;;;;5038926;28;20198;-68
2022/12/05 06:01:47;;;;;;;20.27;11.70;;;;;;;;;;5039248;28;20269;-68
2022/12/05 06:04:13;;;;;;;19.88;12.00;;;;;;;;;;5039177;28;20228;-68
2022/12/05 06:06:40;;;;;;;18.02;11.48;;;;;;;;;;5039081;28;20205;-69
2022/12/05 06:09:06;;;;;;;21.05;12.95;;;;;;;;;;5039076;28;20225;-69
2022/12/05 06:11:34;;;;;;;21.55;12.52;;;;;;;;;;5038958;28;20240;-68
2022/12/05 06:14:00;;;;;;;23.20;12.68;;;;;;;;;;5039029;28;20205;-68
2022/12/05 06:16:27;;;;;;;22.40;12.93;;;;;;;;;;5039039;28;20234;-68
2022/12/05 06:18:53;;;;;;;24.70;12.85;;;;;;;;;;5038631;28;20198;-68
2022/12/05 06:21:20;;;;;;;25.40;13.40;;;;;;;;;;5038900;28;20202;-68
2022/12/05 06:23:46;;;;;;;27.52;13.30;;;;;;;;;;5039218;28;20486;-68
2022/12/05 06:26:13;;;;;;;25.38;13.50;;;;;;;;;;5039000;28;20198;-68
2022/12/05 06:28:41;;;;;;;26.70;13.82;;;;;;;;;;5039139;28;20218;-68
2022/12/05 06:31:08;;;;;;;22.50;13.10;;;;;;;;;;5038743;28;20224;-68
2022/12/05 06:33:34;;;;;;;25.25;13.20;;;;;;;;;;5039004;28;20209;-68
2022/12/05 06:36:01;;;;;;;20.42;12.45;;;;;;;;;;5039140;28;20373;-68
2022/12/05 06:38:27;;;;;;;26.35;13.38;;;;;;;;;;5038712;28;20544;-71
2022/12/05 06:40:54;;;;;;;24.77;13.18;;;;;;;;;;5038701;28;20208;-71
2022/12/05 06:43:20;;;;;;;21.73;12.82;;;;;;;;;;5038724;28;20198;-71
2022/12/05 06:45:48;;;;;;;22.77;13.27;;;;;;;;;;5038552;28;20216;-71
2022/12/05 06:48:14;;;;;;;28.63;14.30;;;;;;;;;;5038693;28;20198;-70
2022/12/05 06:50:47;;;;;;;25.58;13.40;;;;;;;;;;5038419;28;20236;-70
2022/12/05 06:53:13;;;;;;;25.73;14.35;;;;;;;;;;5038626;28;20216;-70
2022/12/05 06:55:39;;;;;;;20.52;13.20;;;;;;;;;;5038632;28;20198;-70
2022/12/05 06:58:06;;;;;;;21.23;13.55;;;;;;;;;;5038057;28;20204;-70
2022/12/05 07:03:17;;;;;;;23.92;13.55;;;;;;;;;;5038450;28;20334;-70
2022/12/05 07:05:44;;;;;;;22.13;13.10;;;;;;;;;;5039391;28;20204;-70
2022/12/05 07:08:10;;;;;;;20.05;12.68;;;;;;;;;;5041676;28;20204;-70
2022/12/05 07:10:36;;;;;;;19.55;12.85;;;;;;;;;;5041767;28;20217;-70
2022/12/05 07:13:03;;;;;;;21.85;12.73;;;;;;;;;;5041458;28;20204;-70
2022/12/05 07:15:29;;;;;;;20.10;13.15;;;;;;;;;;5041975;28;20415;-70
2022/12/05 07:17:56;;;;;;;17.65;12.15;;;;;;;;;;5041306;28;20198;-58
2022/12/05 07:20:23;;;;;;;23.65;13.48;;;;;;;;;;5020505;28;20541;-58
2022/12/05 07:22:49;;;;;;;22.75;12.63;;;;;;;;;;5029988;28;20223;-58
2022/12/05 07:25:16;;;;;;;17.17;11.88;;;;;;;;;;5033347;28;20206;-57
2022/12/05 07:27:46;;;;;;;19.42;12.32;;;;;;;;;;5033712;28;20301;-58
2022/12/05 07:30:13;;;;;;;18.90;11.85;;;;;;;;;;5028866;28;20262;-58
2022/12/05 07:32:39;;;;;;;18.33;12.30;;;;;;;;;;5031650;28;20219;-58
2022/12/05 07:35:05;;;;;;;20.60;12.05;;;;;;;;;;5028231;28;20289;-57
2022/12/05 07:37:33;;;;;;;20.92;11.73;;;;;;;;;;5031360;28;20276;-58
2022/12/05 07:39:59;;;;;;;25.45;12.45;;;;;;;;;;5031979;28;20213;-58
2022/12/05 07:42:26;;;;;;;19.98;11.88;;;;;;;;;;5032206;28;20248;-58
2022/12/05 07:44:52;;;;;;;21.30;11.88;;;;;;;;;;5032001;28;20221;-57
2022/12/05 07:47:18;;;;;;;22.27;13.15;;;;;;;;;;5032597;28;20209;-58
2022/12/05 07:49:44;;;;;;;19.35;11.85;;;;;;;;;;5031720;28;20214;-58
2022/12/05 07:52:11;;;;;;;23.20;12.20;;;;;;;;;;5031942;28;20418;-58
2022/12/05 07:54:38;;;;;;;25.23;12.45;;;;;;;;;;5032097;28;20228;-58
2022/12/05 07:57:05;;;;;;;19.63;12.32;;;;;;;;;;5031641;28;20210;-58
2022/12/05 07:59:31;;;;;;;23.13;12.40;;;;;;;;;;5031197;28;20216;-59
2022/12/05 08:01:57;;;;;;;18.80;11.30;;;;;;;;;;5031596;28;20231;-58
2022/12/05 08:04:24;;;;;;;18.27;11.57;;;;;;;;;;5032275;28;20206;-58
2022/12/05 08:06:50;;;;;;;21.35;12.52;;;;;;;;;;5032648;28;20213;-58
2022/12/05 08:09:16;;;;;;;19.35;12.27;;;;;;;;;;5031163;28;20213;-58
2022/12/05 08:11:44;;;;;;;19.83;13.00;;;;;;;;;;5031782;28;20233;-58
2022/12/05 08:14:11;;;;;;;20.13;12.80;;;;;;;;;;5031830;28;20388;-58
2022/12/05 08:16:37;;;;;;;20.80;12.65;;;;;;;;;;5032303;28;20217;-58
2022/12/05 08:19:04;;;;;;;17.73;12.07;;;;;;;;;;5031567;28;20202;-58
2022/12/05 08:21:31;;;;;;;19.92;12.27;;;;;;;;;;5031924;28;20214;-58
2022/12/05 08:23:57;;;;;;;21.45;12.98;;;;;;;;;;5032378;28;20210;-58
2022/12/05 08:26:25;;;;;;;19.63;12.32;;;;;;;;;;5032508;28;20225;-58
2022/12/05 08:28:53;;;;;;;26.42;13.68;;;;;;;;;;5031685;28;20229;-58
2022/12/05 08:31:22;;;;;;;24.20;13.60;;;;;;;;;;5031704;28;20225;-58
2022/12/05 08:33:48;;;;;;;24.50;13.23;;;;;;;;;;5031575;28;20533;-58
2022/12/05 08:36:15;;;;;;;18.90;13.00;;;;;;;;;;5032246;28;20228;-58
2022/12/05 08:38:41;;;;;;;21.17;13.20;;;;;;;;;;5032101;28;20209;-58
2022/12/05 08:41:09;;;;;;;18.65;12.15;;;;;;;;;;5031673;28;20520;-58
2022/12/05 08:43:35;;;;;;;18.17;12.00;;;;;;;;;;5030641;28;20246;-58
2022/12/05 08:46:03;;;;;;;20.25;12.20;;;;;;;;;;5030609;28;20404;-58
2022/12/05 08:48:30;;;;;;;14.77;10.98;;;;;;;;;;5029955;28;20284;-57
2022/12/05 08:50:56;;;;;;;13.38;10.10;;;;;;;;;;5030042;28;20230;-58
2022/12/05 08:53:23;;;;;;;14.02;9.70;;;;;;;;;;5031875;28;20236;-57
2022/12/05 08:55:49;;;;;;;11.55;9.27;;;;;;;;;;5032280;28;20218;-58
2022/12/05 08:58:15;;;;;;;13.52;9.80;;;;;;;;;;5032765;28;20377;-57
2022/12/05 09:00:42;;;;;;;15.13;10.57;;;;;;;;;;5032647;28;20210;-57
2022/12/05 09:03:10;;;;;;;16.30;10.20;;;;;;;;;;5032936;28;20384;-57
2022/12/05 09:05:37;;;;;;;14.43;9.27;;;;;;;;;;5033359;28;20290;-58
2022/12/05 09:08:03;;;;;;;13.57;10.25;;;;;;;;;;5033215;28;20218;-57
2022/12/05 09:10:30;;;;;;;15.60;10.35;;;;;;;;;;5032438;28;20202;-57
2022/12/05 09:12:56;;;;;;;13.40;9.25;;;;;;;;;;5033047;28;20214;-58
2022/12/05 09:15:22;;;;;;;12.07;10.02;;;;;;;;;;5032183;28;20216;-57
2022/12/05 09:17:48;;;;;;;14.30;9.63;;;;;;;;;;5032583;28;20434;-58
2022/12/05 09:20:17;;;;;;;17.33;10.10;;;;;;;;;;5031554;28;20221;-58
2022/12/05 09:22:43;;;;;;;14.13;9.20;;;;;;;;;;5031886;28;20209;-57
2022/12/05 09:25:09;;;;;;;15.75;9.80;;;;;;;;;;5032621;28;20221;-58
2022/12/05 09:27:36;;;;;;;12.68;9.38;;;;;;;;;;5032072;28;20256;-58
2022/12/05 09:30:03;;;;;;;12.23;9.35;;;;;;;;;;5032189;28;20292;-57
2022/12/05 09:32:29;;;;;;;13.38;9.48;;;;;;;;;;5032337;28;20225;-57
2022/12/05 09:34:55;;;;;;;15.00;9.15;;;;;;;;;;5032040;28;20218;-57
2022/12/05 09:37:23;;;;;;;11.18;8.27;;;;;;;;;;5032302;28;20206;-56
2022/12/05 09:39:49;;;;;;;13.10;9.40;;;;;;;;;;5031466;28;20253;-56
2022/12/05 09:42:22;;;;;;;12.93;8.38;;;;;;;;;;5032039;28;20216;-57
2022/12/05 09:45:06;;;;;;;11.63;8.75;;;;;;;;;;5027328;28;20213;-57
2022/12/05 09:47:35;;;;;;;12.77;8.70;;;;;;;;;;5035255;28;20213;-58
2022/12/05 09:50:08;;;;;;;12.48;9.55;;;;;;;;;;5031359;28;20314;-58
2022/12/05 09:52:38;;;;;;;11.57;8.70;;;;;;;;;;5032264;28;20264;-58
2022/12/05 09:55:06;;;;;;;13.43;9.35;;;;;;;;;;5031556;28;20281;-57
2022/12/05 09:57:34;;;;;;;11.73;8.95;;;;;;;;;;5031710;28;20220;-58
2022/12/05 10:00:00;;;;;;;13.50;9.77;;;;;;;;;;5031358;28;20421;-56
2022/12/05 10:02:32;;;;;;;12.02;8.75;;;;;;;;;;5031965;28;20281;-59
2022/12/05 10:05:02;;;;;;;10.95;8.77;;;;;;;;;;5032187;28;20419;-59
2022/12/05 10:07:32;;;;;;;13.20;9.50;;;;;;;;;;5032005;28;20411;-59
2022/12/05 10:10:07;;;;;;;12.02;9.15;;;;;;;;;;5031332;28;20214;-59
2022/12/05 10:12:40;;;;;;;14.93;8.95;;;;;;;;;;5030374;28;20229;-58
2022/12/05 10:15:10;;;;;;;10.05;8.68;;;;;;;;;;5031375;28;20517;-58
2022/12/05 10:17:38;;;;;;;12.05;9.20;;;;;;;;;;5031695;28;20220;-58
2022/12/05 10:20:09;;;;;;;13.55;8.43;;;;;;;;;;5030819;28;20529;-59
2022/12/05 10:22:39;;;;;;;10.60;8.50;;;;;;;;;;5031287;28;20206;-58
2022/12/05 10:25:09;;;;;;;13.32;8.55;;;;;;;;;;5022362;28;20209;-59
2022/12/05 10:27:36;;;;;;;12.10;8.45;;;;;;;;;;5031930;28;20221;-59
2022/12/05 10:30:03;;;;;;;13.20;9.00;;;;;;;;;;5030760;28;20228;-58
2022/12/05 10:32:31;;;;;;;10.00;8.20;;;;;;;;;;5031172;28;20230;-58
2022/12/05 10:35:02;;;;;;;10.93;8.55;;;;;;;;;;5032176;28;20214;-58
2022/12/05 10:37:29;;;;;;;11.10;8.60;;;;;;;;;;5031297;28;20214;-59
2022/12/05 10:39:56;;;;;;;10.25;8.77;;;;;;;;;;5030712;28;20241;-58
2022/12/05 10:42:25;;;;;;;11.30;7.60;;;;;;;;;;5034583;28;20210;-59
2022/12/05 10:44:55;;;;;;;11.98;7.88;;;;;;;;;;5035110;28;20568;-59
2022/12/05 10:47:21;;;;;;;12.70;8.70;;;;;;;;;;5034628;28;20520;-59
2022/12/05 10:49:48;;;;;;;12.38;8.95;;;;;;;;;;5034556;28;20210;-59
2022/12/05 10:52:15;;;;;;;11.90;8.85;;;;;;;;;;5034975;28;20232;-58
2022/12/05 10:54:44;;;;;;;13.45;9.20;;;;;;;;;;5035072;28;20248;-59
2022/12/05 10:57:20;;;;;;;12.60;8.48;;;;;;;;;;5034815;28;20214;-59
2022/12/05 10:59:48;;;;;;;14.60;9.40;;;;;;;;;;5033815;28;20293;-58
2022/12/05 11:02:19;;;;;;;12.60;9.10;;;;;;;;;;5034433;28;20239;-57
2022/12/05 11:04:45;;;;;;;12.65;9.55;;;;;;;;;;5023728;28;20214;-58
2022/12/05 11:07:23;;;;;;;17.98;10.30;;;;;;;;;;5034586;28;20291;-58
2022/12/05 11:09:49;;;;;;;11.98;9.02;;;;;;;;;;5034970;28;20517;-58
2022/12/05 11:12:17;;;;;;;16.98;10.23;;;;;;;;;;5034193;28;20230;-57
2022/12/05 11:14:58;;;;;;;12.48;9.27;;;;;;;;;;5034770;28;20217;-57
2022/12/05 11:17:26;;;;;;;14.15;8.77;;;;;;;;;;5034759;28;20220;-56
2022/12/05 11:19:53;;;;;;;12.20;8.68;;;;;;;;;;5034136;28;20230;-57
2022/12/05 11:22:20;;;;;;;12.60;8.77;;;;;;;;;;5034085;28;20209;-57
2022/12/05 11:24:47;;;;;;;11.07;8.90;;;;;;;;;;5034500;28;20210;-58
2022/12/05 11:27:20;;;;;;;10.48;8.75;;;;;;;;;;5034086;28;20406;-58
2022/12/05 11:29:53;;;;;;;11.85;8.38;;;;;;;;;;5033542;28;20278;-59
2022/12/05 11:32:22;;;;;;;13.27;9.02;;;;;;;;;;5031508;28;20240;-58
2022/12/05 11:34:50;;;;;;;11.30;9.13;;;;;;;;;;5034675;28;20408;-58
2022/12/05 11:37:20;;;;;;;12.50;9.40;;;;;;;;;;5034300;28;20214;-56
2022/12/05 11:39:46;;;;;;;12.70;8.60;;;;;;;;;;5034366;28;20216;-59
2022/12/05 11:42:18;;;;;;;11.32;8.30;;;;;;;;;;5034688;28;20396;-58
2022/12/05 11:45:02;;;;;;;12.73;9.13;;;;;;;;;;5034450;28;20309;-58
2022/12/05 11:47:39;;;;;;;10.55;8.73;;;;;;;;;;5033856;28;20214;-58
2022/12/05 11:50:12;;;;;;;10.02;8.20;;;;;;;;;;5034085;28;20201;-58
2022/12/05 11:52:47;;;;;;;12.27;8.65;;;;;;;;;;5034172;28;20229;-58
2022/12/05 11:55:15;;;;;;;10.85;8.40;;;;;;;;;;5034127;28;20510;-59
2022/12/05 11:57:50;;;;;;;13.27;8.18;;;;;;;;;;5034042;28;20210;-59
2022/12/05 12:00:20;;;;;;;10.77;8.35;;;;;;;;;;5027752;28;20218;-58
2022/12/05 12:03:11;;;;;;;10.40;8.02;;;;;;;;;;5032708;28;20490;-58
2022/12/05 12:05:42;;;;;;;13.60;9.80;;;;;;;;;;5052640;28;20215;-58
2022/12/05 12:08:14;;;;;;;15.82;10.70;;;;;;;;;;5033561;28;20213;-58
2022/12/05 12:10:43;;;;;;;14.90;9.88;;;;;;;;;;5033378;28;20210;-59
2022/12/05 12:13:16;;;;;;;12.88;8.73;;;;;;;;;;5034192;28;20274;-58
2022/12/05 12:15:58;;;;;;;11.10;8.20;;;;;;;;;;5032485;28;20213;-58
2022/12/05 12:18:37;;;;;;;13.38;9.00;;;;;;;;;;5032918;28;20572;-57
2022/12/05 12:21:13;;;;;;;11.43;8.98;;;;;;;;;;5033086;28;20228;-57
2022/12/05 12:23:44;;;;;;;12.68;8.98;;;;;;;;;;5032620;28;20526;-59
2022/12/05 12:26:12;;;;;;;16.67;9.35;;;;;;;;;;5033563;28;20224;-59
2022/12/05 12:28:44;;;;;;;13.63;8.93;;;;;;;;;;5032922;28;20304;-58
2022/12/05 12:31:16;;;;;;;10.77;8.75;;;;;;;;;;5033352;28;20290;-58
2022/12/05 12:33:46;;;;;;;11.55;8.80;;;;;;;;;;5032236;28;20477;-58
2022/12/05 12:36:17;;;;;;;12.52;9.57;;;;;;;;;;5032549;28;20259;-57
2022/12/05 12:38:52;;;;;;;10.43;8.98;;;;;;;;;;5032970;28;20214;-58
2022/12/05 12:41:27;;;;;;;11.38;9.30;;;;;;;;;;5032121;28;20217;-58
2022/12/05 12:44:01;;;;;;;15.15;9.52;;;;;;;;;;5033200;28;20213;-58
2022/12/05 12:46:33;;;;;;;17.42;10.73;;;;;;;;;;5032970;28;20217;-58
2022/12/05 12:49:06;;;;;;;12.75;9.40;;;;;;;;;;5031673;28;20440;-58
2022/12/05 12:51:34;;;;;;;12.00;9.52;;;;;;;;;;5032360;28;20220;-57
2022/12/05 12:54:09;;;;;;;12.60;9.77;;;;;;;;;;5032843;28;20313;-58
2022/12/05 12:56:42;;;;;;;11.27;9.30;;;;;;;;;;5032365;28;20240;-58
2022/12/05 12:59:14;;;;;;;11.45;8.35;;;;;;;;;;5031779;28;20412;-59
2022/12/05 13:01:43;;;;;;;13.70;8.85;;;;;;;;;;5032427;28;20214;-58
2022/12/05 13:04:11;;;;;;;9.32;7.53;;;;;;;;;;5032042;28;20232;-57
2022/12/05 13:06:41;;;;;;;11.48;7.78;;;;;;;;;;5033158;28;20280;-57
2022/12/05 13:09:11;;;;;;;10.70;8.43;;;;;;;;;;5032372;28;20578;-57
2022/12/05 13:11:40;;;;;;;11.05;8.75;;;;;;;;;;5031973;28;20219;-59
2022/12/05 13:14:10;;;;;;;12.60;8.50;;;;;;;;;;5032276;28;20214;-59
2022/12/05 13:16:39;;;;;;;13.77;8.80;;;;;;;;;;5032130;28;20214;-57
2022/12/05 13:19:06;;;;;;;12.65;8.27;;;;;;;;;;5032043;28;20256;-56
2022/12/05 13:21:32;;;;;;;10.55;8.43;;;;;;;;;;5031591;28;20221;-58
2022/12/05 13:24:02;;;;;;;9.98;8.52;;;;;;;;;;5031818;28;20221;-55
2022/12/05 13:26:28;;;;;;;13.27;9.63;;;;;;;;;;5031520;28;20407;-57
2022/12/05 13:28:56;;;;;;;12.00;9.10;;;;;;;;;;5031550;28;20221;-59
2022/12/05 13:31:34;;;;;;;13.88;8.65;;;;;;;;;;5031469;28;20213;-57
2022/12/05 13:34:00;;;;;;;12.60;9.40;;;;;;;;;;5031473;28;20494;-58
2022/12/05 13:42:15;;;;;;;7.00;5.55;;;;;;;;;;5031285;28;20443;-59
2022/12/05 13:44:42;;;;;;;4.43;3.60;;;;;;;;;;5032727;28;20409;-60
2022/12/05 13:47:31;;;;;;;3.83;3.53;;;;;;;;;;5031644;28;20600;-60
2022/12/05 13:50:02;;;;;;;3.05;2.85;;;;;;;;;;5025004;28;20240;-60
2022/12/05 13:52:29;;;;;;;3.78;3.00;;;;;;;;;;5031717;28;20240;-58
2022/12/05 13:54:59;;;;;;;3.60;2.60;;;;;;;;;;5031481;28;20210;-59
2022/12/05 13:57:44;;;;;;;3.97;2.67;;;;;;;;;;5032615;28;20205;-58
2022/12/05 14:00:21;;;;;;;2.53;2.33;;;;;;;;;;5031541;28;20453;-60
2022/12/05 14:02:52;;;;;;;2.00;2.00;;;;;;;;;;5031629;28;20251;-59
2022/12/05 14:05:38;;;;;;;2.40;2.30;;;;;;;;;;5031824;28;20217;-59
2022/12/05 14:08:24;;;;;;;2.20;2.10;;;;;;;;;;5031850;28;20522;-60
2022/12/05 14:11:08;;;;;;;2.50;2.40;;;;;;;;;;5030984;28;20300;-60
2022/12/05 14:13:42;;;;;;;1.88;1.83;;;;;;;;;;5031235;28;20225;-59
2022/12/05 14:16:27;;;;;;;1.83;1.80;;;;;;;;;;5034125;28;20239;-60
2022/12/05 14:18:58;;;;;;;2.25;2.15;;;;;;;;;;5035533;28;20465;-60
2022/12/05 14:21:35;;;;;;;2.00;1.90;;;;;;;;;;5034736;28;20229;-59
2022/12/05 14:24:05;;;;;;;1.92;1.83;;;;;;;;;;5034977;28;20235;-58
2022/12/05 14:26:48;;;;;;;3.08;2.45;;;;;;;;;;5035356;28;20536;-59
2022/12/05 14:29:27;;;;;;;3.00;2.20;;;;;;;;;;5034675;28;20230;-59
2022/12/05 14:32:00;;;;;;;1.73;1.63;;;;;;;;;;5033572;28;20217;-59
2022/12/05 14:34:27;;;;;;;2.90;2.70;;;;;;;;;;5038960;28;20205;-60
2022/12/05 14:37:01;;;;;;;3.05;2.10;;;;;;;;;;5039096;28;20223;-60
2022/12/05 14:39:31;;;;;;;1.98;1.88;;;;;;;;;;5038677;28;20276;-59
2022/12/05 14:42:00;;;;;;;2.35;2.25;;;;;;;;;;5038465;28;20425;-60
2022/12/05 14:44:30;;;;;;;2.53;2.40;;;;;;;;;;5039714;28;20206;-60
2022/12/05 14:47:01;;;;;;;4.80;2.50;;;;;;;;;;5038891;28;20210;-58
2022/12/05 14:49:33;;;;;;;2.80;2.60;;;;;;;;;;5038372;28;20405;-59